Time;durP1;ratioP1;P1;durP2;ratioP2;P2;SDS_P1;SDS_P2;PMS_P1;PMS_P2;Temp;Humidity;BMP_temperature;BMP_pressure;BME280_temperature;BME280_humidity;BME280_pressure;Samples;Min_cycle;Max_cycle;Signal;HPM_P1;HPM_P2
2022/12/14 00:00:55;;;;;;;25.55;13.10;;;-0.60;99.90;;;;;;4980606;28;20026;-86
2022/12/14 00:03:21;;;;;;;24.98;13.00;;;-0.60;99.90;;;;;;4981736;28;20026;-86
2022/12/14 00:05:47;;;;;;;23.98;12.65;;;-0.60;99.90;;;;;;4982148;28;20054;-87
2022/12/14 00:08:14;;;;;;;24.20;12.75;;;-0.50;99.90;;;;;;4996803;28;20023;-87
2022/12/14 00:10:41;;;;;;;23.73;12.57;;;-0.60;99.90;;;;;;4997738;28;20470;-86
2022/12/14 00:13:08;;;;;;;24.55;13.00;;;-0.60;99.90;;;;;;4979513;28;20065;-87
2022/12/14 00:15:36;;;;;;;27.13;12.95;;;-0.60;99.90;;;;;;4996226;28;20045;-86
2022/12/14 00:18:02;;;;;;;23.67;13.45;;;-0.60;99.90;;;;;;4996663;28;20488;-85
2022/12/14 00:20:28;;;;;;;25.83;13.77;;;-0.60;99.90;;;;;;4997469;28;20105;-86
2022/12/14 00:22:56;;;;;;;24.90;12.30;;;-0.60;99.90;;;;;;5012669;28;20062;-86
2022/12/14 00:25:23;;;;;;;24.50;13.25;;;-0.60;99.90;;;;;;4996534;28;20041;-86
2022/12/14 00:27:49;;;;;;;23.05;12.30;;;-0.60;99.90;;;;;;4996416;28;20094;-86
2022/12/14 00:30:18;;;;;;;25.00;13.10;;;-0.60;99.90;;;;;;4980284;28;20027;-86
2022/12/14 00:32:43;;;;;;;23.98;13.35;;;-0.60;99.90;;;;;;4996597;28;20045;-86
2022/12/14 00:35:11;;;;;;;23.00;12.40;;;-0.60;99.90;;;;;;4979979;28;20046;-87
2022/12/14 00:37:38;;;;;;;23.65;12.30;;;-0.60;99.90;;;;;;4996201;28;20033;-86
2022/12/14 00:40:05;;;;;;;23.35;12.32;;;-0.50;99.90;;;;;;4995626;28;20049;-86
2022/12/14 00:42:31;;;;;;;26.63;13.38;;;-0.60;99.90;;;;;;5011780;28;20034;-86
2022/12/14 00:44:59;;;;;;;24.20;12.55;;;-0.60;99.90;;;;;;4979655;28;20382;-86
2022/12/14 00:47:25;;;;;;;23.92;12.65;;;-0.60;99.90;;;;;;4995848;28;20093;-87
2022/12/14 00:49:51;;;;;;;24.63;12.52;;;-0.60;99.90;;;;;;4979438;28;20031;-86
2022/12/14 00:52:16;;;;;;;24.83;12.95;;;-0.60;99.90;;;;;;4979389;28;20027;-87
2022/12/14 00:54:42;;;;;;;23.20;12.80;;;-0.60;99.90;;;;;;4995798;28;20030;-87
2022/12/14 00:57:09;;;;;;;24.10;12.50;;;-0.60;99.90;;;;;;4963585;28;20073;-87
2022/12/14 00:59:34;;;;;;;23.45;12.52;;;-0.60;99.90;;;;;;4979615;28;20022;-86
2022/12/14 01:02:00;;;;;;;21.75;12.00;;;-0.60;99.90;;;;;;4963687;28;20035;-87
2022/12/14 01:04:27;;;;;;;20.98;11.75;;;-0.60;99.90;;;;;;4979528;28;20120;-87
2022/12/14 01:06:53;;;;;;;25.85;13.30;;;-0.60;99.90;;;;;;4994966;28;20026;-87
2022/12/14 01:09:21;;;;;;;26.23;12.45;;;-0.60;99.90;;;;;;4995695;28;20031;-87
2022/12/14 01:11:47;;;;;;;25.90;12.45;;;-0.60;99.90;;;;;;4995254;28;20081;-85
2022/12/14 01:14:15;;;;;;;20.58;12.00;;;-0.60;99.90;;;;;;4994881;28;20054;-87
2022/12/14 01:16:41;;;;;;;26.65;13.25;;;-0.60;99.90;;;;;;4996740;28;20042;-87
2022/12/14 01:19:07;;;;;;;24.67;12.65;;;-0.60;99.90;;;;;;4979336;28;20126;-86
2022/12/14 01:21:33;;;;;;;21.17;10.98;;;-0.60;99.90;;;;;;4996127;28;20034;-86
2022/12/14 01:24:01;;;;;;;26.45;12.93;;;-0.60;99.90;;;;;;4996336;28;20018;-86
2022/12/14 01:26:29;;;;;;;22.55;12.38;;;-0.60;99.90;;;;;;4995505;28;20048;-87
2022/12/14 01:28:57;;;;;;;19.73;11.85;;;-0.60;99.90;;;;;;4995499;28;20027;-87
2022/12/14 01:31:29;;;;;;;22.88;12.13;;;-0.60;99.90;;;;;;4995484;28;20023;-87
2022/12/14 01:33:55;;;;;;;21.23;12.00;;;-0.60;99.90;;;;;;4995718;28;20018;-87
2022/12/14 01:36:23;;;;;;;20.30;11.95;;;-0.60;99.90;;;;;;4978478;28;20497;-85
2022/12/14 01:39:05;;;;;;;20.55;10.95;;;-0.60;99.90;;;;;;4994774;28;20042;-85
2022/12/14 01:41:40;;;;;;;24.02;10.70;;;-0.60;99.90;;;;;;4994421;28;20058;-85
2022/12/14 01:44:08;;;;;;;21.42;11.52;;;-0.70;99.90;;;;;;4995523;28;20026;-86
2022/12/14 01:46:34;;;;;;;20.80;11.05;;;-0.70;99.90;;;;;;5010995;28;20026;-85
2022/12/14 01:49:10;;;;;;;20.38;11.10;;;-0.60;99.90;;;;;;4995804;28;20368;-85
2022/12/14 01:51:36;;;;;;;21.15;11.10;;;-0.70;99.90;;;;;;4994314;28;20074;-86
2022/12/14 01:54:09;;;;;;;18.52;10.07;;;-0.70;99.90;;;;;;4995070;28;20041;-86
2022/12/14 01:56:39;;;;;;;19.08;11.38;;;-0.70;99.90;;;;;;4994456;28;20052;-86
2022/12/14 01:59:09;;;;;;;19.73;10.95;;;-0.70;99.90;;;;;;4995997;28;20522;-86
2022/12/14 02:01:37;;;;;;;19.60;10.90;;;-0.70;99.90;;;;;;4994534;28;20022;-86
2022/12/14 02:04:04;;;;;;;19.17;10.68;;;-0.70;99.90;;;;;;4963780;28;20069;-86
2022/12/14 02:06:34;;;;;;;20.17;10.70;;;-0.70;99.90;;;;;;5017812;28;20034;-86
2022/12/14 02:09:04;;;;;;;20.88;11.50;;;-0.70;99.90;;;;;;5006459;28;20031;-86
2022/12/14 02:11:57;;;;;;;18.65;10.40;;;-0.70;99.90;;;;;;5010844;28;20053;-86
2022/12/14 02:14:23;;;;;;;19.95;11.35;;;-0.70;99.90;;;;;;4993929;28;20062;-86
2022/12/14 02:16:51;;;;;;;21.48;10.48;;;-0.70;99.90;;;;;;4962437;28;20030;-87
2022/12/14 02:19:17;;;;;;;19.30;10.50;;;-0.80;99.90;;;;;;4994776;28;20062;-86
2022/12/14 02:22:14;;;;;;;18.65;10.38;;;-0.70;99.90;;;;;;4978353;28;20125;-86
2022/12/14 02:25:42;;;;;;;17.05;9.77;;;-0.70;99.90;;;;;;4997853;28;20069;-84
2022/12/14 02:28:08;;;;;;;19.92;10.23;;;-0.70;99.90;;;;;;4961965;28;20022;-86
2022/12/14 02:30:39;;;;;;;19.77;11.13;;;-0.80;99.90;;;;;;4961897;28;20254;-86
2022/12/14 02:33:25;;;;;;;18.75;10.93;;;-0.70;99.90;;;;;;4993060;28;20121;-86
2022/12/14 02:35:57;;;;;;;21.42;10.38;;;-0.70;99.90;;;;;;5002157;28;20038;-86
2022/12/14 02:38:32;;;;;;;17.25;9.30;;;-0.80;99.90;;;;;;5033944;28;20022;-89
2022/12/14 02:41:07;;;;;;;17.70;10.23;;;-0.80;99.90;;;;;;5036718;28;20031;-86
2022/12/14 02:43:51;;;;;;;18.75;9.68;;;-0.80;99.90;;;;;;5006699;28;20026;-86
2022/12/14 02:46:32;;;;;;;17.63;9.40;;;-0.70;99.90;;;;;;5016564;28;20054;-87
2022/12/14 02:49:09;;;;;;;17.73;9.32;;;-0.80;99.90;;;;;;5013911;28;20529;-86
2022/12/14 02:51:50;;;;;;;18.05;9.90;;;-0.80;99.90;;;;;;4997809;28;20026;-87
2022/12/14 02:54:21;;;;;;;18.88;10.00;;;-0.80;99.90;;;;;;5014141;28;20027;-87
2022/12/14 02:56:52;;;;;;;17.73;10.27;;;-0.80;99.90;;;;;;4998106;28;20077;-87
2022/12/14 02:59:18;;;;;;;16.80;9.07;;;-0.80;99.90;;;;;;4997474;28;20076;-87
2022/12/14 03:01:48;;;;;;;17.08;9.20;;;-0.80;99.90;;;;;;4998778;28;20110;-86
2022/12/14 03:04:15;;;;;;;18.55;10.48;;;-0.80;99.90;;;;;;4997643;28;20490;-86
2022/12/14 03:07:21;;;;;;;16.92;9.15;;;-0.80;99.90;;;;;;4981115;28;20046;-86
2022/12/14 03:09:46;;;;;;;16.58;9.00;;;-0.80;99.90;;;;;;5013694;28;20033;-86
2022/12/14 03:12:14;;;;;;;17.73;8.73;;;-0.80;99.90;;;;;;4996922;28;20030;-87
2022/12/14 03:14:45;;;;;;;18.95;10.02;;;-0.80;99.90;;;;;;5015755;28;20050;-86
2022/12/14 03:17:18;;;;;;;20.25;10.10;;;-0.80;99.90;;;;;;5001490;28;20093;-87
2022/12/14 03:19:52;;;;;;;18.25;9.77;;;-0.80;99.90;;;;;;5001218;28;20018;-86
2022/12/14 03:22:32;;;;;;;17.00;9.27;;;-0.80;99.90;;;;;;5000904;28;20033;-87
2022/12/14 03:25:07;;;;;;;16.05;9.10;;;-0.80;99.90;;;;;;5001909;28;20025;-86
2022/12/14 03:27:37;;;;;;;19.75;9.75;;;-0.80;99.90;;;;;;5003821;28;20045;-86
2022/12/14 03:30:11;;;;;;;17.95;9.43;;;-0.80;99.90;;;;;;5004133;28;20030;-86
2022/12/14 03:32:51;;;;;;;19.67;9.65;;;-0.80;99.90;;;;;;5007180;28;20018;-86
2022/12/14 03:35:26;;;;;;;19.42;9.77;;;-0.90;99.90;;;;;;5004156;28;20467;-86
2022/12/14 03:38:16;;;;;;;18.08;9.48;;;-0.80;99.90;;;;;;5022199;28;20057;-87
2022/12/14 03:41:12;;;;;;;18.77;9.67;;;-0.80;99.90;;;;;;4995527;28;20034;-86
2022/12/14 03:44:00;;;;;;;19.13;9.45;;;-0.90;99.90;;;;;;4979754;28;20030;-86
2022/12/14 03:46:36;;;;;;;21.83;10.18;;;-0.90;99.90;;;;;;5004798;28;20026;-86
2022/12/14 03:49:20;;;;;;;19.95;9.23;;;-0.90;99.90;;;;;;5020215;28;20021;-87
2022/12/14 03:52:04;;;;;;;18.08;8.98;;;-0.90;99.90;;;;;;5003276;28;20458;-87
2022/12/14 03:54:30;;;;;;;17.02;9.32;;;-0.90;99.90;;;;;;5020374;28;20030;-89
2022/12/14 03:57:06;;;;;;;19.88;10.15;;;-0.90;99.90;;;;;;5019821;28;20022;-87
2022/12/14 03:59:32;;;;;;;18.95;9.88;;;-0.90;99.90;;;;;;5018868;28;20022;-87
2022/12/14 04:02:14;;;;;;;19.55;8.82;;;-0.90;99.90;;;;;;5018422;28;20116;-87
2022/12/14 04:04:58;;;;;;;18.58;10.00;;;-0.90;99.90;;;;;;4999503;28;20121;-85
2022/12/14 04:07:44;;;;;;;16.70;8.90;;;-0.90;99.90;;;;;;5000605;28;20029;-85
2022/12/14 04:18:55;;;;;;;;;;;-0.90;99.90;;;;;;5017471;28;20052;-85
2022/12/14 04:21:52;;;;;;;17.45;8.35;;;-0.90;99.90;;;;;;4999964;28;20016;-85
2022/12/14 04:27:18;;;;;;;16.75;8.38;;;-1.00;99.90;;;;;;5017325;28;20041;-85
2022/12/14 04:29:55;;;;;;;15.25;7.90;;;-1.00;99.90;;;;;;4999271;28;20022;-85
2022/12/14 04:32:39;;;;;;;17.27;8.45;;;-1.00;99.90;;;;;;5016965;28;20109;-85
2022/12/14 04:35:08;;;;;;;16.65;8.85;;;-1.00;99.90;;;;;;4999349;28;20037;-85
2022/12/14 04:37:37;;;;;;;16.23;8.63;;;-1.00;99.90;;;;;;5015362;28;20033;-85
2022/12/14 04:40:30;;;;;;;17.90;8.40;;;-1.00;99.90;;;;;;4999555;28;20033;-85
2022/12/14 04:43:03;;;;;;;16.70;8.13;;;-1.00;99.90;;;;;;4999573;28;20259;-85
2022/12/14 04:46:00;;;;;;;19.25;8.68;;;-1.00;99.90;;;;;;4999074;28;20033;-84
2022/12/14 04:48:41;;;;;;;15.35;7.80;;;-1.00;99.90;;;;;;4995170;28;20065;-84
2022/12/14 04:51:31;;;;;;;15.85;7.75;;;-1.00;99.90;;;;;;4999823;28;20113;-85
2022/12/14 04:54:15;;;;;;;15.70;8.02;;;-1.00;99.90;;;;;;5018172;28;20037;-85
2022/12/14 04:57:00;;;;;;;15.38;8.43;;;-1.00;99.90;;;;;;5008473;28;20034;-85
2022/12/14 04:59:26;;;;;;;17.63;8.13;;;-1.00;99.90;;;;;;5020414;28;20048;-86
2022/12/14 05:02:05;;;;;;;15.18;8.02;;;-1.00;99.90;;;;;;5017493;28;20030;-85
2022/12/14 05:04:36;;;;;;;13.48;6.93;;;-1.00;99.90;;;;;;5007183;28;20112;-85
2022/12/14 05:07:26;;;;;;;16.83;7.85;;;-1.00;99.90;;;;;;5016504;28;20029;-85
2022/12/14 05:10:06;;;;;;;16.45;8.52;;;-1.00;99.90;;;;;;5015532;28;20026;-85
2022/12/14 05:12:44;;;;;;;16.23;7.38;;;-1.00;99.90;;;;;;5010351;28;20121;-84
2022/12/14 05:15:25;;;;;;;14.75;7.30;;;-1.00;99.90;;;;;;4975587;28;20043;-85
2022/12/14 05:17:51;;;;;;;16.50;8.43;;;-1.00;99.90;;;;;;4976759;28;20118;-85
2022/12/14 05:20:20;;;;;;;13.68;7.22;;;-1.00;99.90;;;;;;4991624;28;20019;-85
2022/12/14 05:22:46;;;;;;;16.85;8.75;;;-1.00;99.90;;;;;;5007887;28;20031;-85
2022/12/14 05:25:12;;;;;;;15.25;8.15;;;-1.00;99.90;;;;;;4991452;28;20035;-84
2022/12/14 05:27:38;;;;;;;15.63;7.97;;;-1.00;99.90;;;;;;4991459;28;20034;-85
2022/12/14 05:30:07;;;;;;;15.05;6.80;;;-1.00;99.90;;;;;;5007571;28;20027;-85
2022/12/14 05:32:34;;;;;;;15.23;7.30;;;-1.00;99.90;;;;;;4975550;28;20530;-84
2022/12/14 05:35:01;;;;;;;13.27;7.03;;;-1.00;99.90;;;;;;4991091;28;20039;-85
2022/12/14 05:37:27;;;;;;;14.38;7.28;;;-1.10;99.90;;;;;;5006307;28;20034;-85
2022/12/14 05:39:53;;;;;;;14.77;7.68;;;-1.00;99.90;;;;;;4994393;28;20042;-85
2022/12/14 05:42:19;;;;;;;15.90;7.60;;;-1.00;99.90;;;;;;4962407;28;20540;-85
2022/12/14 05:44:44;;;;;;;14.10;7.00;;;-1.10;99.90;;;;;;4962447;28;20121;-85
2022/12/14 05:47:10;;;;;;;18.50;7.60;;;-1.00;99.90;;;;;;4962672;28;20033;-85
2022/12/14 05:49:36;;;;;;;15.68;7.47;;;-1.10;99.90;;;;;;4978433;28;20035;-85
2022/12/14 05:52:01;;;;;;;14.82;6.90;;;-1.10;99.90;;;;;;4995058;28;20092;-85
2022/12/14 05:54:27;;;;;;;13.18;7.20;;;-1.10;99.90;;;;;;4978699;28;20030;-85
2022/12/14 05:56:53;;;;;;;12.98;7.55;;;-1.10;99.90;;;;;;4978027;28;20030;-85
2022/12/14 05:59:18;;;;;;;11.95;6.45;;;-1.00;99.90;;;;;;4976760;28;20063;-84
2022/12/14 06:01:44;;;;;;;13.30;6.55;;;-1.00;99.90;;;;;;4981437;28;20451;-84
2022/12/14 06:04:17;;;;;;;14.20;7.00;;;-1.00;99.90;;;;;;4992027;28;20034;-85
2022/12/14 06:06:43;;;;;;;13.65;6.60;;;-1.10;99.90;;;;;;4997754;28;20018;-84
2022/12/14 06:09:12;;;;;;;12.20;6.40;;;-1.10;99.90;;;;;;4991739;28;20042;-85
2022/12/14 06:11:40;;;;;;;12.75;6.80;;;-1.00;99.90;;;;;;4997261;28;20026;-85
2022/12/14 06:14:07;;;;;;;13.50;7.00;;;-1.00;99.90;;;;;;5008933;28;20046;-85
2022/12/14 06:16:33;;;;;;;13.93;6.50;;;-1.10;99.90;;;;;;5012688;28;20034;-85
2022/12/14 06:19:00;;;;;;;13.85;6.78;;;-1.10;99.90;;;;;;4996621;28;20138;-85
2022/12/14 06:21:28;;;;;;;14.18;7.00;;;-1.10;99.90;;;;;;4980233;28;20034;-85
2022/12/14 06:23:55;;;;;;;12.18;6.10;;;-1.10;99.90;;;;;;4997454;28;20045;-85
2022/12/14 06:26:22;;;;;;;18.10;7.13;;;-1.10;99.90;;;;;;4997297;28;20033;-84
2022/12/14 06:28:48;;;;;;;13.77;6.93;;;-1.10;99.90;;;;;;4996824;28;20129;-84
2022/12/14 06:31:16;;;;;;;13.50;6.97;;;-1.10;99.90;;;;;;4997402;28;20046;-85
2022/12/14 06:33:42;;;;;;;16.00;6.88;;;-1.10;99.90;;;;;;4997277;28;20066;-84
2022/12/14 06:36:22;;;;;;;13.48;6.35;;;-1.10;99.90;;;;;;4997506;28;20084;-84
2022/12/14 06:38:49;;;;;;;12.10;6.10;;;-1.10;99.90;;;;;;4998174;28;20386;-84
2022/12/14 06:41:15;;;;;;;13.85;6.88;;;-1.10;99.90;;;;;;4965339;28;20482;-84
2022/12/14 06:43:40;;;;;;;16.50;7.38;;;-1.10;99.90;;;;;;4981493;28;20027;-84
2022/12/14 06:46:11;;;;;;;15.00;7.28;;;-1.10;99.90;;;;;;4971188;28;20548;-84
2022/12/14 06:48:37;;;;;;;15.10;8.63;;;-1.10;99.90;;;;;;4998820;28;20014;-84
2022/12/14 06:51:05;;;;;;;15.00;7.65;;;-1.10;99.90;;;;;;4979151;28;20057;-86
2022/12/14 06:53:32;;;;;;;15.32;7.70;;;-1.20;99.90;;;;;;5006542;28;20038;-85
2022/12/14 06:56:09;;;;;;;16.20;8.27;;;-1.20;99.90;;;;;;4998238;28;20035;-85
2022/12/14 06:58:36;;;;;;;14.75;7.82;;;-1.20;99.90;;;;;;4998766;28;20015;-86
2022/12/14 07:01:06;;;;;;;13.32;6.95;;;-1.10;99.90;;;;;;4965398;28;20099;-86
2022/12/14 07:03:32;;;;;;;15.57;7.50;;;-1.20;99.90;;;;;;4999446;28;20036;-85
2022/12/14 07:05:59;;;;;;;13.68;7.10;;;-1.20;99.90;;;;;;4998838;28;20038;-85
2022/12/14 07:08:26;;;;;;;14.77;7.35;;;-1.20;99.90;;;;;;4998563;28;20117;-87
2022/12/14 07:10:52;;;;;;;17.48;7.82;;;-1.20;99.90;;;;;;4980287;28;20118;-85
2022/12/14 07:13:24;;;;;;;17.58;9.43;;;-1.20;99.90;;;;;;4981325;28;20583;-85
2022/12/14 07:15:54;;;;;;;14.60;7.32;;;-1.30;99.90;;;;;;4998287;28;20039;-85
2022/12/14 07:18:20;;;;;;;16.97;7.67;;;-1.30;99.90;;;;;;5024890;28;20042;-86
2022/12/14 07:21:00;;;;;;;18.08;8.25;;;-1.30;99.90;;;;;;5018061;28;20289;-86
2022/12/14 07:23:28;;;;;;;15.35;7.80;;;-1.30;99.90;;;;;;4991699;28;20027;-85
2022/12/14 07:26:03;;;;;;;16.63;8.35;;;-1.30;99.90;;;;;;4997311;28;20026;-85
2022/12/14 07:28:30;;;;;;;13.48;8.48;;;-1.30;99.90;;;;;;4998475;28;20018;-85
2022/12/14 07:30:59;;;;;;;17.27;8.73;;;-1.30;99.90;;;;;;4996659;28;20049;-87
2022/12/14 07:33:26;;;;;;;15.90;7.50;;;-1.40;99.90;;;;;;4981454;28;20041;-85
2022/12/14 07:36:00;;;;;;;17.25;8.80;;;-1.30;99.90;;;;;;5013751;28;20060;-85
2022/12/14 07:38:25;;;;;;;16.67;7.40;;;-1.40;99.90;;;;;;4982393;28;20076;-85
2022/12/14 07:41:08;;;;;;;16.48;7.82;;;-1.40;99.90;;;;;;4981967;28;20026;-84
2022/12/14 07:43:38;;;;;;;17.45;8.70;;;-1.40;99.90;;;;;;4997272;28;20069;-86
2022/12/14 07:46:06;;;;;;;19.15;8.25;;;-1.40;99.90;;;;;;4996386;28;20035;-85
2022/12/14 07:48:33;;;;;;;18.13;8.27;;;-1.40;99.90;;;;;;5013660;28;20018;-85
2022/12/14 07:51:11;;;;;;;17.40;7.97;;;-1.40;99.90;;;;;;4996786;28;20031;-84
2022/12/14 07:53:38;;;;;;;17.95;9.05;;;-1.40;99.90;;;;;;4996228;28;20023;-86
2022/12/14 07:56:06;;;;;;;17.10;8.27;;;-1.50;99.90;;;;;;4996080;28;20031;-86
2022/12/14 07:58:33;;;;;;;17.60;8.65;;;-1.50;99.90;;;;;;4997520;28;20054;-85
2022/12/14 08:01:21;;;;;;;16.10;7.50;;;-1.50;99.90;;;;;;4982089;28;20034;-87
2022/12/14 08:03:49;;;;;;;18.02;8.57;;;-1.50;99.90;;;;;;4996049;28;20018;-87
2022/12/14 08:06:16;;;;;;;17.70;8.50;;;-1.50;99.90;;;;;;4996319;28;20026;-88
2022/12/14 08:08:42;;;;;;;16.88;8.05;;;-1.50;99.90;;;;;;4979666;28;20038;-88
2022/12/14 08:11:08;;;;;;;19.38;9.13;;;-1.60;99.90;;;;;;4997353;28;20494;-87
2022/12/14 08:13:35;;;;;;;18.60;8.43;;;-1.60;99.90;;;;;;4998155;28;20069;-87
2022/12/14 08:16:02;;;;;;;20.38;8.70;;;-1.60;99.90;;;;;;5014590;28;20125;-87
2022/12/14 08:18:28;;;;;;;18.38;9.07;;;-1.60;99.90;;;;;;4999259;28;20112;-86
2022/12/14 08:20:53;;;;;;;17.80;8.85;;;-1.60;99.90;;;;;;4999502;28;20497;-87
2022/12/14 08:23:20;;;;;;;18.02;9.10;;;-1.60;99.90;;;;;;4983135;28;20033;-88
2022/12/14 08:25:54;;;;;;;18.00;9.95;;;-1.60;99.90;;;;;;4982934;28;20070;-87
2022/12/14 08:28:20;;;;;;;17.13;8.95;;;-1.60;99.90;;;;;;4995816;28;20026;-87
2022/12/14 08:30:45;;;;;;;20.25;9.93;;;-1.60;99.90;;;;;;4999785;28;20029;-87
2022/12/14 08:33:14;;;;;;;19.13;8.40;;;-1.60;99.90;;;;;;4982663;28;20034;-87
2022/12/14 08:35:40;;;;;;;19.30;10.65;;;-1.60;99.90;;;;;;4998218;28;20042;-87
2022/12/14 08:38:05;;;;;;;19.52;9.43;;;-1.70;99.90;;;;;;4981114;28;20172;-87
2022/12/14 08:40:34;;;;;;;16.60;8.70;;;-1.70;99.90;;;;;;4979651;28;20041;-87
2022/12/14 08:43:00;;;;;;;16.88;8.27;;;-1.70;99.90;;;;;;4998279;28;20026;-87
2022/12/14 08:45:25;;;;;;;22.30;10.35;;;-1.70;99.90;;;;;;5010994;28;20037;-87
2022/12/14 08:47:51;;;;;;;18.83;9.38;;;-1.70;99.90;;;;;;4965885;28;20092;-86
2022/12/14 08:50:17;;;;;;;17.98;9.18;;;-1.70;99.90;;;;;;4997537;28;20080;-88
2022/12/14 08:52:46;;;;;;;22.67;9.48;;;-1.70;99.90;;;;;;4998389;28;20109;-88
2022/12/14 08:55:13;;;;;;;20.67;10.07;;;-1.80;99.90;;;;;;5014840;28;20038;-87
2022/12/14 08:57:39;;;;;;;20.90;9.80;;;-1.70;99.90;;;;;;4978681;28;20037;-87
2022/12/14 09:00:08;;;;;;;20.40;9.50;;;-1.70;99.90;;;;;;4997413;28;20057;-87
2022/12/14 09:02:34;;;;;;;23.73;9.40;;;-1.80;99.90;;;;;;4994294;28;20053;-87
2022/12/14 09:04:59;;;;;;;19.20;9.75;;;-1.80;99.90;;;;;;4998114;28;20061;-87
2022/12/14 09:07:27;;;;;;;20.50;9.38;;;-1.80;99.90;;;;;;4995345;28;20026;-87
2022/12/14 09:09:52;;;;;;;17.63;9.38;;;-1.80;99.90;;;;;;4979119;28;20085;-85
2022/12/14 09:12:19;;;;;;;18.65;9.60;;;-1.80;99.90;;;;;;4997291;28;20026;-85
2022/12/14 09:14:48;;;;;;;20.55;10.05;;;-1.70;99.90;;;;;;4961856;28;20046;-85
2022/12/14 09:17:14;;;;;;;27.38;9.52;;;-1.70;99.90;;;;;;4996233;28;20045;-86
2022/12/14 09:19:40;;;;;;;18.95;9.52;;;-1.60;99.90;;;;;;5012711;28;20037;-85
2022/12/14 09:22:06;;;;;;;18.52;9.55;;;-1.70;99.90;;;;;;4983266;28;20030;-85
2022/12/14 09:24:31;;;;;;;18.27;9.30;;;-1.60;99.90;;;;;;5016983;28;20057;-88
2022/12/14 09:27:01;;;;;;;20.58;9.32;;;-1.60;99.90;;;;;;4998977;28;20462;-86
2022/12/14 09:29:28;;;;;;;17.40;8.90;;;-1.50;99.90;;;;;;4981204;28;20148;-86
2022/12/14 09:31:54;;;;;;;18.50;9.23;;;-1.50;99.90;;;;;;4997852;28;20022;-87
2022/12/14 09:34:20;;;;;;;23.75;10.73;;;-1.40;99.90;;;;;;4998294;28;20026;-86
2022/12/14 09:36:47;;;;;;;17.15;8.52;;;-1.50;99.90;;;;;;5001176;28;20396;-86
2022/12/14 09:39:13;;;;;;;19.67;9.45;;;-1.40;99.90;;;;;;4984372;28;20103;-87
2022/12/14 09:41:48;;;;;;;17.90;8.55;;;-1.30;99.90;;;;;;5011992;28;20038;-87
2022/12/14 09:44:22;;;;;;;18.75;9.38;;;-1.30;99.90;;;;;;5008921;28;20410;-88
2022/12/14 09:47:19;;;;;;;18.65;9.68;;;-1.20;99.90;;;;;;5017343;28;20045;-86
2022/12/14 09:49:50;;;;;;;18.70;9.00;;;-1.20;99.90;;;;;;4993927;28;20018;-87
2022/12/14 09:52:21;;;;;;;17.30;9.15;;;-1.20;99.90;;;;;;4995157;28;20367;-88
2022/12/14 09:54:51;;;;;;;19.00;8.95;;;-1.20;99.90;;;;;;5012790;28;20045;-87
2022/12/14 09:57:32;;;;;;;18.52;9.93;;;-1.10;99.90;;;;;;4996147;28;20038;-87
2022/12/14 10:00:00;;;;;;;16.27;8.00;;;-1.10;99.90;;;;;;5003498;28;20477;-88
2022/12/14 10:02:58;;;;;;;20.80;9.68;;;-1.10;99.90;;;;;;4988443;28;20030;-88
2022/12/14 10:06:10;;;;;;;16.98;8.63;;;-1.00;99.90;;;;;;4994317;28;20037;-89
2022/12/14 10:08:49;;;;;;;17.13;8.23;;;-1.00;99.90;;;;;;5014349;28;20029;-88
2022/12/14 10:11:43;;;;;;;18.05;8.73;;;-1.00;99.90;;;;;;4998893;28;20041;-89
2022/12/14 10:14:34;;;;;;;18.77;8.38;;;-0.90;99.90;;;;;;5012024;28;20058;-89
2022/12/14 10:17:25;;;;;;;17.90;9.15;;;-0.90;99.90;;;;;;5013980;28;20041;-90
2022/12/14 10:20:16;;;;;;;18.70;8.57;;;-0.80;99.90;;;;;;5019197;28;20080;-90
2022/12/14 10:22:48;;;;;;;;;;;-0.80;99.90;;;;;;5018291;28;20030;-90
2022/12/14 10:25:26;;;;;;;14.43;6.88;;;-0.80;99.90;;;;;;5014589;28;19909;-89
2022/12/14 10:28:28;;;;;;;17.10;7.88;;;-0.70;99.90;;;;;;5004174;28;20024;-88
2022/12/14 10:30:58;;;;;;;17.75;7.50;;;-0.70;99.90;;;;;;4999081;28;20058;-88
2022/12/14 10:33:31;;;;;;;15.60;8.82;;;-0.70;99.90;;;;;;4999240;28;20018;-91
2022/12/14 10:36:19;;;;;;;15.32;8.18;;;-0.70;99.90;;;;;;4998829;28;20471;-89
2022/12/14 10:39:01;;;;;;;17.48;8.40;;;-0.60;99.90;;;;;;5009319;28;20363;-89
2022/12/14 10:41:42;;;;;;;17.05;7.65;;;-0.60;99.90;;;;;;4996393;28;20022;-88
2022/12/14 10:44:46;;;;;;;16.45;8.55;;;-0.60;99.90;;;;;;4998629;28;20561;-89
2022/12/14 10:47:24;;;;;;;17.13;8.73;;;-0.50;99.90;;;;;;5008229;28;20444;-88
2022/12/14 10:49:59;;;;;;;17.48;8.57;;;-0.50;99.90;;;;;;5020044;28;20029;-89
2022/12/14 10:52:32;;;;;;;16.40;8.13;;;-0.50;99.90;;;;;;5015464;28;20033;-88
2022/12/14 10:55:02;;;;;;;15.38;9.23;;;-0.40;99.90;;;;;;5001945;28;20041;-88
2022/12/14 10:57:33;;;;;;;14.55;7.88;;;-0.40;99.90;;;;;;4993742;28;20489;-87
2022/12/14 10:59:59;;;;;;;15.02;8.07;;;-0.40;99.90;;;;;;4984553;28;20037;-88
2022/12/14 11:02:34;;;;;;;14.23;8.18;;;-0.30;99.90;;;;;;5000938;28;20022;-88
2022/12/14 11:05:28;;;;;;;12.93;6.90;;;-0.30;99.90;;;;;;4999874;28;20038;-88
2022/12/14 11:07:58;;;;;;;15.43;7.75;;;-0.20;99.90;;;;;;5016083;28;20053;-90
2022/12/14 11:10:35;;;;;;;14.68;7.45;;;-0.20;99.90;;;;;;4999016;28;20159;-91
2022/12/14 11:13:18;;;;;;;15.70;8.48;;;-0.10;99.90;;;;;;5002465;28;20062;-90
2022/12/14 11:15:51;;;;;;;17.02;8.60;;;0.00;99.90;;;;;;4994479;28;20093;-89
2022/12/14 11:18:29;;;;;;;20.02;8.20;;;0.00;99.90;;;;;;4995131;28;20069;-89
2022/12/14 11:21:04;;;;;;;17.08;7.65;;;0.10;99.90;;;;;;4996980;28;20034;-88
2022/12/14 11:23:38;;;;;;;16.15;8.52;;;0.20;99.90;;;;;;4996870;28;20094;-87
2022/12/14 11:26:27;;;;;;;;;;;;;;;;;;;;;
2022/12/14 11:29:03;;;;;;;16.83;7.97;;;0.30;99.90;;;;;;4995857;28;20010;-87
2022/12/14 11:32:05;;;;;;;15.95;7.97;;;0.40;99.90;;;;;;4979479;28;20589;-87
2022/12/14 11:34:38;;;;;;;14.23;7.53;;;0.40;99.90;;;;;;4995955;28;20030;-87
2022/12/14 11:37:22;;;;;;;13.13;7.43;;;0.50;99.90;;;;;;4995473;28;20375;-87
2022/12/14 11:39:54;;;;;;;14.10;7.13;;;0.50;99.90;;;;;;4995311;28;20042;-88
2022/12/14 11:42:45;;;;;;;20.88;7.90;;;0.60;99.90;;;;;;4996324;28;20030;-90
2022/12/14 11:45:25;;;;;;;15.82;7.80;;;0.60;99.90;;;;;;4978038;28;20049;-87
2022/12/14 11:48:15;;;;;;;16.52;8.52;;;0.70;99.90;;;;;;5004037;28;20037;-88
2022/12/14 11:51:02;;;;;;;;;;;;;;;;;;;;;
2022/12/14 11:53:48;;;;;;;18.58;8.57;;;0.80;99.90;;;;;;5002898;28;20109;-87
2022/12/14 11:56:20;;;;;;;16.65;8.98;;;0.90;99.90;;;;;;5002950;28;20066;-87
2022/12/14 11:58:53;;;;;;;15.48;8.60;;;1.00;99.90;;;;;;5013057;28;20098;-87
2022/12/14 12:01:24;;;;;;;17.63;8.50;;;1.10;99.90;;;;;;5012585;28;20035;-87
2022/12/14 12:03:51;;;;;;;;;;;1.20;99.90;;;;;;4992673;28;20037;-88
2022/12/14 12:06:26;;;;;;;17.38;8.55;;;1.30;99.90;;;;;;4993437;28;19992;-88
2022/12/14 12:09:00;;;;;;;17.73;8.13;;;1.30;99.90;;;;;;4994179;28;20031;-88
2022/12/14 12:11:33;;;;;;;18.05;9.52;;;1.30;99.90;;;;;;4993374;28;20101;-89
2022/12/14 12:14:31;;;;;;;16.92;8.00;;;1.40;99.90;;;;;;4994302;28;20052;-88
2022/12/14 12:17:00;;;;;;;15.95;8.77;;;1.50;99.90;;;;;;4999599;28;20100;-88
2022/12/14 12:19:36;;;;;;;16.75;8.00;;;1.50;99.90;;;;;;4995519;28;20033;-88
2022/12/14 12:22:06;;;;;;;14.80;7.25;;;1.60;99.90;;;;;;4993863;28;20029;-88
2022/12/14 12:24:44;;;;;;;17.03;8.57;;;1.70;99.90;;;;;;4993975;28;20085;-88
2022/12/14 12:27:22;;;;;;;16.17;7.57;;;1.80;99.90;;;;;;5006765;28;20077;-89
2022/12/14 12:30:22;;;;;;;;;;;;;;;;;;;;;
2022/12/14 12:33:01;;;;;;;16.00;7.75;;;1.90;99.90;;;;;;4995613;28;20030;-89
2022/12/14 12:35:54;;;;;;;15.27;7.57;;;2.00;99.90;;;;;;4994760;28;20121;-84
2022/12/14 12:38:38;;;;;;;15.77;7.65;;;2.10;99.90;;;;;;4973828;28;20110;-87
2022/12/14 12:41:16;;;;;;;15.25;8.35;;;2.20;99.90;;;;;;4991255;28;20074;-87
2022/12/14 12:43:57;;;;;;;14.52;7.82;;;2.30;99.90;;;;;;4994417;28;20390;-87
2022/12/14 12:46:37;;;;;;;14.10;7.20;;;2.30;99.90;;;;;;4995538;28;20497;-88
2022/12/14 12:49:13;;;;;;;14.85;7.18;;;2.40;99.90;;;;;;5001518;28;20375;-87
2022/12/14 12:51:53;;;;;;;13.25;6.93;;;2.40;99.90;;;;;;4994182;28;20037;-87
2022/12/14 12:54:42;;;;;;;11.55;6.15;;;2.50;99.90;;;;;;5006764;28;20395;-88
2022/12/14 12:57:20;;;;;;;14.27;6.57;;;2.60;99.90;;;;;;4994073;28;20053;-89
2022/12/14 12:59:50;;;;;;;19.88;9.05;;;2.60;99.90;;;;;;4995609;28;20092;-88
2022/12/14 13:02:50;;;;;;;;;;;;;;;;;;;;;
2022/12/14 13:05:21;;;;;;;13.60;7.00;;;2.70;99.90;;;;;;4994385;28;20044;-88
2022/12/14 13:08:11;;;;;;;11.95;6.65;;;2.70;99.90;;;;;;4991366;28;20032;-88
2022/12/14 13:10:41;;;;;;;12.90;7.32;;;2.80;99.90;;;;;;4992212;28;20033;-89
2022/12/14 13:13:30;;;;;;;15.43;7.68;;;2.80;99.90;;;;;;4993579;28;20015;-88
2022/12/14 13:16:17;;;;;;;14.85;7.57;;;2.90;99.10;;;;;;5006499;28;20058;-88
2022/12/14 13:18:51;;;;;;;14.57;7.72;;;2.90;99.40;;;;;;4991516;28;20070;-88
2022/12/14 13:21:36;;;;;;;15.48;7.93;;;3.00;99.70;;;;;;4993125;28;20027;-89
2022/12/14 13:24:03;;;;;;;15.52;7.80;;;3.00;99.40;;;;;;4994308;28;20027;-88